Terminal Aerodrome Forecast
Issued by NWS

Home | Current Version | Previous Version | Text Only | Print | Product List | Glossary On
Versions: 1 2 3 4 5 6 7 8 9 10 11 12 13 14
016
FTUS41 KLWX 301721
TAFMTN
TAF
KMTN 301721Z 3018/0118 06005KT P6SM OVC020
     FM302000 12005KT P6SM OVC025
     FM302300 12008KT P6SM OVC040
     FM010300 13008KT P6SM -RA OVC025
     FM010500 13007KT P6SM -RA OVC015
     FM011400 12007KT 2SM RA BR OVC003=

USA.gov is the U.S. government's official web portal to all federal, state and local government web resources and services.